createdAt,value
2018-03-07T00:00:33.731Z,2.30
2018-03-07T00:01:33.702Z,2.40
2018-03-07T00:02:33.667Z,2.30
2018-03-07T00:03:33.621Z,2.20
2018-03-07T00:04:33.614Z,2.20
2018-03-07T00:05:33.572Z,2.20
2018-03-07T00:06:33.527Z,2.20
2018-03-07T00:07:33.526Z,1.70
2018-03-07T00:08:33.491Z,2.30
2018-03-07T00:09:33.440Z,1.80
2018-03-07T00:10:33.419Z,1.70
2018-03-07T00:11:33.376Z,2.40
2018-03-07T00:12:33.363Z,2.40
2018-03-07T00:13:33.325Z,2.10
2018-03-07T00:14:33.306Z,2.10
2018-03-07T00:15:33.254Z,1.80
2018-03-07T00:16:33.222Z,2.40
2018-03-07T00:17:33.243Z,2.30
2018-03-07T00:18:33.209Z,1.90
2018-03-07T00:19:33.162Z,2.40
2018-03-07T00:20:33.150Z,2.10
2018-03-07T00:21:33.096Z,2.00
2018-03-07T00:22:33.087Z,1.90
2018-03-07T00:23:33.031Z,2.10
2018-03-07T00:24:33.012Z,1.80
2018-03-07T00:25:32.977Z,1.60
2018-03-07T00:26:32.940Z,1.70
2018-03-07T00:27:32.928Z,1.90
2018-03-07T00:28:32.920Z,1.60
2018-03-07T00:29:32.864Z,1.80
2018-03-07T00:30:32.842Z,2.30
2018-03-07T00:31:32.810Z,2.00
2018-03-07T00:32:32.771Z,2.30
2018-03-07T00:33:32.740Z,2.00
2018-03-07T00:34:32.717Z,1.70
2018-03-07T00:35:32.703Z,2.00
2018-03-07T00:36:32.652Z,1.70
2018-03-07T00:37:33.212Z,1.70
2018-03-07T00:38:32.629Z,1.80
2018-03-07T00:39:32.565Z,2.20
2018-03-07T00:40:32.555Z,2.10
2018-03-07T00:41:32.501Z,2.00
2018-03-07T00:42:32.495Z,1.70
2018-03-07T00:43:32.449Z,2.30
2018-03-07T00:44:32.429Z,2.50
2018-03-07T00:45:32.421Z,1.70
2018-03-07T00:46:32.364Z,1.90
2018-03-07T00:47:32.335Z,1.90
2018-03-07T00:48:32.328Z,1.70
2018-03-07T00:49:32.285Z,1.70
2018-03-07T00:50:32.272Z,1.90
2018-03-07T00:51:32.205Z,1.90
2018-03-07T00:52:32.185Z,2.60
2018-03-07T00:53:32.182Z,1.80
2018-03-07T00:54:32.114Z,1.80
2018-03-07T00:55:32.092Z,2.10
2018-03-07T00:56:32.061Z,1.90
2018-03-07T00:57:32.051Z,2.00
2018-03-07T00:58:32.024Z,2.10
2018-03-07T00:59:31.975Z,2.00
2018-03-07T01:00:31.979Z,1.90
2018-03-07T01:01:31.941Z,2.20
2018-03-07T01:02:31.922Z,2.20
2018-03-07T01:03:31.860Z,2.30
2018-03-07T01:04:31.858Z,2.00
2018-03-07T01:05:31.810Z,2.60
2018-03-07T01:06:31.791Z,2.30
2018-03-07T01:07:31.755Z,1.80
2018-03-07T01:08:31.714Z,2.50
2018-03-07T01:09:31.683Z,2.20
2018-03-07T01:10:31.679Z,2.30
2018-03-07T01:11:31.643Z,2.00
2018-03-07T01:12:31.617Z,2.40
2018-03-07T01:13:31.599Z,2.20
2018-03-07T01:14:31.559Z,2.20
2018-03-07T01:15:31.513Z,2.30
2018-03-07T01:16:31.469Z,2.90
2018-03-07T01:17:31.472Z,2.40
2018-03-07T01:18:31.419Z,2.30
2018-03-07T01:19:31.389Z,2.60
2018-03-07T01:20:31.344Z,2.40
2018-03-07T01:21:31.339Z,2.30
2018-03-07T01:22:31.311Z,2.50
2018-03-07T01:23:31.281Z,2.40
2018-03-07T01:24:31.258Z,2.40
2018-03-07T01:25:31.224Z,2.20
2018-03-07T01:26:31.213Z,2.40
2018-03-07T01:27:31.184Z,2.30
2018-03-07T01:28:31.148Z,2.60
2018-03-07T01:29:31.101Z,2.10
2018-03-07T01:30:31.069Z,2.10
2018-03-07T01:31:31.041Z,2.20
2018-03-07T01:32:31.005Z,2.30
2018-03-07T01:33:30.990Z,2.60
2018-03-07T01:34:31.724Z,2.10
2018-03-07T01:35:30.948Z,2.60
2018-03-07T01:36:30.891Z,2.70
2018-03-07T01:37:31.729Z,2.10
2018-03-07T01:38:30.835Z,2.70
2018-03-07T01:39:30.799Z,2.40
2018-03-07T01:40:30.767Z,2.30
2018-03-07T01:41:30.759Z,2.30
2018-03-07T01:42:30.726Z,2.20
2018-03-07T01:43:30.692Z,2.10
2018-03-07T01:44:30.682Z,2.50
2018-03-07T01:45:30.617Z,2.20
2018-03-07T01:46:30.624Z,2.60
2018-03-07T01:47:30.586Z,2.40
2018-03-07T01:48:30.553Z,2.40
2018-03-07T01:49:30.530Z,2.40
2018-03-07T01:50:30.476Z,2.40
2018-03-07T01:51:30.445Z,2.30
2018-03-07T01:52:30.422Z,2.10
2018-03-07T01:53:30.381Z,2.40
2018-03-07T01:54:30.359Z,2.40
2018-03-07T01:55:30.344Z,2.30
2018-03-07T01:56:30.315Z,2.40
2018-03-07T01:57:30.266Z,2.00
2018-03-07T01:58:30.236Z,2.50
2018-03-07T01:59:30.220Z,2.50
2018-03-07T02:00:30.171Z,2.80
2018-03-07T02:01:30.181Z,2.30
2018-03-07T02:02:30.146Z,2.90
2018-03-07T02:03:30.088Z,2.80
2018-03-07T02:04:30.074Z,2.30
2018-03-07T02:05:30.061Z,2.50
2018-03-07T02:06:29.997Z,2.40
2018-03-07T02:07:29.974Z,2.30
2018-03-07T02:08:29.941Z,2.20
2018-03-07T02:09:29.936Z,2.20
2018-03-07T02:10:29.869Z,2.40
2018-03-07T02:11:29.860Z,2.40
2018-03-07T02:12:29.828Z,2.60
2018-03-07T02:13:29.817Z,2.30
2018-03-07T02:14:29.742Z,2.10
2018-03-07T02:15:29.769Z,2.50
2018-03-07T02:16:29.689Z,2.60
2018-03-07T02:17:29.670Z,2.30
2018-03-07T02:18:29.673Z,2.50
2018-03-07T02:19:29.647Z,2.20
2018-03-07T02:20:29.605Z,2.30
2018-03-07T02:21:29.582Z,2.30
2018-03-07T02:22:29.519Z,2.40
2018-03-07T02:23:29.491Z,2.60
2018-03-07T02:24:29.469Z,2.80
2018-03-07T02:25:29.459Z,2.40
2018-03-07T02:26:29.398Z,2.70
2018-03-07T02:27:29.368Z,2.80
2018-03-07T02:28:29.341Z,2.60
2018-03-07T02:29:29.303Z,2.40
2018-03-07T02:30:29.290Z,2.20
2018-03-07T02:31:29.256Z,2.40
2018-03-07T02:32:29.213Z,2.00
2018-03-07T02:33:29.197Z,2.40
2018-03-07T02:34:29.187Z,2.40
2018-03-07T02:35:29.161Z,2.50
2018-03-07T02:36:29.108Z,2.30
2018-03-07T02:37:29.100Z,2.70
2018-03-07T02:38:29.037Z,2.20
2018-03-07T02:39:29.018Z,2.30
2018-03-07T02:40:29.003Z,2.40
2018-03-07T02:41:28.961Z,2.40
2018-03-07T02:42:28.927Z,2.70
2018-03-07T02:43:28.928Z,2.80
2018-03-07T02:44:28.885Z,2.30
2018-03-07T02:45:28.863Z,2.50
2018-03-07T02:46:28.795Z,2.60
2018-03-07T02:47:28.802Z,2.20
2018-03-07T02:48:28.739Z,2.30
2018-03-07T02:49:28.726Z,2.70
2018-03-07T02:50:28.692Z,2.60
2018-03-07T02:51:28.672Z,2.60
2018-03-07T02:52:28.629Z,2.50
2018-03-07T02:53:29.546Z,2.60
2018-03-07T02:54:28.573Z,2.20
2018-03-07T02:55:28.527Z,2.60
2018-03-07T02:56:28.500Z,2.70
2018-03-07T02:57:28.487Z,3.00
2018-03-07T02:58:28.478Z,2.60
2018-03-07T02:59:28.425Z,2.40
2018-03-07T03:00:28.419Z,2.60
2018-03-07T03:01:29.038Z,2.30
2018-03-07T03:02:29.026Z,2.70
2018-03-07T03:03:28.305Z,2.40
2018-03-07T03:04:28.289Z,2.90
2018-03-07T03:05:28.746Z,2.60
2018-03-07T03:06:28.223Z,2.80
2018-03-07T03:07:28.175Z,2.40
2018-03-07T03:08:28.151Z,2.60
2018-03-07T03:09:28.113Z,2.80
2018-03-07T03:10:28.085Z,2.70
2018-03-07T03:11:28.055Z,2.90
2018-03-07T03:12:28.019Z,2.60
2018-03-07T03:13:28.025Z,2.50
2018-03-07T03:14:27.972Z,3.20
2018-03-07T03:15:27.950Z,2.90
2018-03-07T03:16:27.916Z,2.70
2018-03-07T03:17:27.907Z,2.70
2018-03-07T03:18:27.879Z,2.60
2018-03-07T03:19:27.840Z,2.60
2018-03-07T03:20:27.788Z,2.60
2018-03-07T03:21:27.775Z,2.50
2018-03-07T03:22:27.729Z,2.80
2018-03-07T03:23:27.695Z,3.20
2018-03-07T03:24:27.695Z,2.30
2018-03-07T03:25:27.634Z,3.00
2018-03-07T03:26:27.633Z,2.80
2018-03-07T03:27:27.563Z,2.90
2018-03-07T03:28:27.551Z,2.70
2018-03-07T03:29:27.530Z,2.60
2018-03-07T03:30:27.500Z,2.80
2018-03-07T03:31:27.491Z,2.80
2018-03-07T03:32:27.462Z,2.60
2018-03-07T03:33:27.422Z,2.60
2018-03-07T03:34:27.391Z,2.80
2018-03-07T03:35:27.366Z,2.80
2018-03-07T03:36:27.307Z,2.60
2018-03-07T03:37:27.298Z,2.30
2018-03-07T03:38:27.279Z,2.40
2018-03-07T03:39:27.244Z,2.50
2018-03-07T03:40:27.219Z,2.40
2018-03-07T03:41:27.165Z,1.90
2018-03-07T03:42:27.151Z,2.50
2018-03-07T03:43:27.104Z,2.30
2018-03-07T03:44:27.092Z,2.40
2018-03-07T03:45:27.043Z,2.30
2018-03-07T03:46:27.010Z,2.30
2018-03-07T03:47:26.975Z,2.00
2018-03-07T03:48:26.944Z,2.90
2018-03-07T03:49:26.939Z,1.90
2018-03-07T03:50:26.892Z,1.90
2018-03-07T03:51:26.882Z,2.10
2018-03-07T03:52:26.827Z,1.70
2018-03-07T03:53:26.803Z,2.40
2018-03-07T03:54:26.800Z,2.30
2018-03-07T03:55:26.744Z,2.00
2018-03-07T03:56:26.705Z,1.80
2018-03-07T03:57:26.662Z,1.90
2018-03-07T03:58:26.678Z,2.40
2018-03-07T03:59:26.647Z,2.10
2018-03-07T04:00:26.583Z,2.00
2018-03-07T04:01:26.582Z,2.10
2018-03-07T04:02:26.530Z,2.10
2018-03-07T04:03:26.527Z,1.90
2018-03-07T04:04:26.484Z,2.30
2018-03-07T04:05:26.432Z,2.20
2018-03-07T04:06:26.422Z,2.20
2018-03-07T04:07:26.378Z,2.40
2018-03-07T04:08:26.362Z,2.20
2018-03-07T04:09:26.340Z,2.20
2018-03-07T04:10:26.279Z,2.10
2018-03-07T04:11:26.266Z,2.20
2018-03-07T04:12:26.214Z,2.20
2018-03-07T04:13:26.198Z,1.70
2018-03-07T04:14:26.166Z,2.20
2018-03-07T04:15:26.128Z,1.80
2018-03-07T04:16:26.116Z,1.50
2018-03-07T04:17:26.066Z,1.80
2018-03-07T04:18:26.089Z,2.10
2018-03-07T04:19:26.752Z,2.00
2018-03-07T04:20:26.016Z,2.10
2018-03-07T04:21:25.940Z,1.90
2018-03-07T04:22:25.917Z,1.80
2018-03-07T04:23:25.925Z,2.10
2018-03-07T04:24:25.878Z,1.90
2018-03-07T04:25:25.838Z,2.60
2018-03-07T04:26:25.815Z,2.10
2018-03-07T04:27:25.797Z,1.70
2018-03-07T04:28:25.755Z,1.90
2018-03-07T04:29:25.711Z,1.90
2018-03-07T04:30:25.672Z,2.00
2018-03-07T04:31:25.672Z,1.90
2018-03-07T04:32:25.622Z,2.20
2018-03-07T04:33:25.624Z,1.90
2018-03-07T04:34:25.593Z,1.70
2018-03-07T04:35:25.537Z,1.80
2018-03-07T04:36:25.534Z,1.60
2018-03-07T04:37:25.471Z,1.90
2018-03-07T04:38:25.427Z,2.10
2018-03-07T04:39:25.441Z,1.90
2018-03-07T04:40:25.405Z,1.70
2018-03-07T04:41:25.383Z,1.90
2018-03-07T04:42:25.320Z,1.80
2018-03-07T04:43:25.294Z,2.30
2018-03-07T04:44:25.272Z,1.80
2018-03-07T04:45:25.244Z,1.70
2018-03-07T04:46:25.211Z,1.50
2018-03-07T04:47:25.172Z,1.80
2018-03-07T04:48:25.136Z,1.70
2018-03-07T04:49:25.143Z,1.70
2018-03-07T04:50:25.086Z,1.80
2018-03-07T04:51:25.065Z,1.80
2018-03-07T04:52:25.017Z,1.90
2018-03-07T04:53:24.997Z,1.70
2018-03-07T04:54:24.963Z,1.50
2018-03-07T04:55:24.935Z,1.70
2018-03-07T04:56:24.902Z,1.80
2018-03-07T04:57:24.869Z,1.50
2018-03-07T04:58:24.842Z,1.70
2018-03-07T04:59:24.806Z,1.70
2018-03-07T05:00:24.779Z,1.40
2018-03-07T05:01:24.745Z,1.40
2018-03-07T05:02:24.709Z,1.90
2018-03-07T05:03:24.711Z,1.90
2018-03-07T05:04:24.671Z,2.00
2018-03-07T05:05:24.630Z,1.60
2018-03-07T05:06:24.602Z,1.60
2018-03-07T05:07:24.571Z,1.70
2018-03-07T05:08:24.563Z,1.80
2018-03-07T05:09:24.494Z,1.80
2018-03-07T05:10:24.485Z,1.70
2018-03-07T05:11:24.475Z,5.20
2018-03-07T05:12:24.414Z,19.60
2018-03-07T05:13:24.411Z,30.00
2018-03-07T05:14:24.362Z,36.90
2018-03-07T05:15:24.327Z,34.00
2018-03-07T05:16:24.327Z,36.50
2018-03-07T05:17:24.255Z,36.90
2018-03-07T05:18:24.258Z,35.40
2018-03-07T05:19:24.194Z,37.70
2018-03-07T05:20:24.188Z,34.10
2018-03-07T05:21:24.164Z,37.20
2018-03-07T05:22:24.130Z,36.60
2018-03-07T05:23:24.097Z,33.50
2018-03-07T05:24:24.056Z,30.70
2018-03-07T05:25:24.019Z,23.00
2018-03-07T05:26:23.986Z,21.10
2018-03-07T05:27:23.961Z,18.80
2018-03-07T05:28:23.963Z,18.20
2018-03-07T05:29:23.916Z,20.30
2018-03-07T05:30:23.892Z,20.50
2018-03-07T05:31:23.863Z,17.40
2018-03-07T05:32:23.840Z,15.80
2018-03-07T05:33:23.786Z,16.70
2018-03-07T05:34:23.749Z,15.20
2018-03-07T05:35:23.720Z,15.40
2018-03-07T05:36:23.723Z,14.40
2018-03-07T05:37:23.651Z,13.80
2018-03-07T05:38:23.635Z,12.40
2018-03-07T05:39:23.613Z,12.80
2018-03-07T05:40:23.561Z,12.20
2018-03-07T05:41:23.522Z,12.60
2018-03-07T05:42:23.501Z,12.70
2018-03-07T05:43:23.473Z,12.00
2018-03-07T05:44:23.458Z,12.20
2018-03-07T05:45:23.413Z,12.10
2018-03-07T05:46:23.378Z,11.70
2018-03-07T05:47:23.364Z,10.90
2018-03-07T05:48:23.310Z,10.30
2018-03-07T05:49:23.288Z,11.20
2018-03-07T05:50:23.263Z,10.50
2018-03-07T05:51:23.769Z,9.60
2018-03-07T05:52:23.208Z,9.90
2018-03-07T05:53:23.158Z,9.20
2018-03-07T05:54:23.773Z,9.00
2018-03-07T05:55:23.124Z,8.80
2018-03-07T05:56:23.106Z,8.80
2018-03-07T05:57:23.047Z,8.90
2018-03-07T05:58:23.033Z,8.30
2018-03-07T05:59:23.014Z,8.70
2018-03-07T06:00:22.970Z,8.70
2018-03-07T06:01:22.947Z,8.60
2018-03-07T06:02:22.884Z,8.20
2018-03-07T06:03:22.864Z,8.00
2018-03-07T06:04:22.855Z,7.50
2018-03-07T06:05:22.805Z,7.10
2018-03-07T06:06:22.788Z,7.80
2018-03-07T06:07:22.742Z,8.10
2018-03-07T06:08:22.702Z,8.00
2018-03-07T06:09:22.705Z,9.20
2018-03-07T06:10:22.648Z,8.00
2018-03-07T06:11:23.292Z,8.30
2018-03-07T06:12:22.616Z,7.90
2018-03-07T06:13:22.573Z,7.90
2018-03-07T06:14:22.529Z,9.30
2018-03-07T06:15:22.478Z,8.10
2018-03-07T06:16:22.446Z,8.20
2018-03-07T06:17:22.433Z,7.00
2018-03-07T06:18:22.417Z,7.40
2018-03-07T06:19:22.367Z,7.30
2018-03-07T06:20:22.340Z,6.90
2018-03-07T06:21:22.310Z,7.50
2018-03-07T06:22:22.267Z,7.30
2018-03-07T06:23:22.274Z,6.80
2018-03-07T06:24:22.242Z,7.30
2018-03-07T06:25:22.204Z,7.70
2018-03-07T06:26:22.142Z,6.60
2018-03-07T06:27:22.112Z,6.70
2018-03-07T06:28:22.091Z,7.00
2018-03-07T06:29:22.088Z,6.50
2018-03-07T06:30:22.015Z,7.40
2018-03-07T06:31:21.995Z,6.90
2018-03-07T06:32:21.995Z,6.70
2018-03-07T06:33:21.945Z,6.80
2018-03-07T06:34:21.903Z,7.20
2018-03-07T06:35:21.865Z,6.80
2018-03-07T06:36:21.847Z,6.70
2018-03-07T06:37:21.804Z,6.30
2018-03-07T06:38:21.800Z,5.70
2018-03-07T06:39:21.779Z,5.90
2018-03-07T06:40:21.743Z,6.40
2018-03-07T06:41:21.679Z,6.10
2018-03-07T06:42:21.674Z,6.50
2018-03-07T06:43:21.612Z,6.60
2018-03-07T06:44:21.619Z,6.20
2018-03-07T06:45:21.567Z,6.40
2018-03-07T06:46:21.540Z,6.50
2018-03-07T06:47:21.488Z,6.30
2018-03-07T06:48:21.462Z,7.80
2018-03-07T06:49:21.428Z,6.20
2018-03-07T06:50:21.427Z,6.40
2018-03-07T06:51:21.387Z,7.20
2018-03-07T06:52:21.379Z,7.30
2018-03-07T06:53:21.334Z,6.70
2018-03-07T06:54:21.288Z,7.00
2018-03-07T06:55:21.280Z,7.70
2018-03-07T06:56:21.239Z,6.80
2018-03-07T06:57:21.185Z,6.70
2018-03-07T06:58:21.163Z,6.60
2018-03-07T06:59:21.159Z,6.90
2018-03-07T07:00:21.085Z,6.80
2018-03-07T07:01:21.078Z,7.60
2018-03-07T07:02:21.033Z,8.60
2018-03-07T07:03:21.009Z,10.60
2018-03-07T07:04:20.995Z,13.50
2018-03-07T07:05:20.941Z,11.70
2018-03-07T07:06:20.921Z,14.00
2018-03-07T07:07:20.880Z,13.50
2018-03-07T07:08:20.843Z,23.10
2018-03-07T07:09:20.845Z,22.80
2018-03-07T07:10:20.787Z,26.20
2018-03-07T07:11:20.781Z,25.60
2018-03-07T07:12:20.726Z,28.40
2018-03-07T07:13:20.689Z,25.00
2018-03-07T07:14:20.685Z,26.20
2018-03-07T07:15:20.660Z,26.20
2018-03-07T07:16:20.606Z,27.60
2018-03-07T07:17:20.558Z,26.40
2018-03-07T07:18:20.556Z,28.90
2018-03-07T07:19:20.529Z,28.30
2018-03-07T07:20:20.496Z,27.40
2018-03-07T07:21:20.431Z,27.00
2018-03-07T07:22:20.427Z,27.40
2018-03-07T07:23:20.401Z,29.20
2018-03-07T07:24:20.416Z,28.40
2018-03-07T07:25:20.338Z,28.40
2018-03-07T07:26:20.287Z,28.10
2018-03-07T07:27:20.272Z,28.70
2018-03-07T07:28:20.236Z,30.10
2018-03-07T07:29:20.195Z,29.60
2018-03-07T07:30:20.173Z,28.20
2018-03-07T07:31:20.139Z,29.90
2018-03-07T07:32:20.104Z,31.20
2018-03-07T07:33:20.091Z,29.70
2018-03-07T07:34:20.062Z,32.30
2018-03-07T07:35:20.005Z,32.90
2018-03-07T07:36:19.974Z,31.40
2018-03-07T07:37:19.967Z,32.60
2018-03-07T07:38:19.911Z,34.40
2018-03-07T07:39:19.888Z,35.20
2018-03-07T07:40:19.847Z,39.90
2018-03-07T07:41:19.816Z,38.60
2018-03-07T07:42:19.806Z,39.60
2018-03-07T07:43:19.758Z,41.50
2018-03-07T07:44:19.723Z,40.70
2018-03-07T07:45:19.705Z,44.20
2018-03-07T07:46:19.695Z,40.30
2018-03-07T07:47:19.678Z,41.90
2018-03-07T07:48:19.627Z,41.90
2018-03-07T07:49:19.596Z,43.70
2018-03-07T07:50:19.533Z,42.90
2018-03-07T07:51:19.540Z,41.30
2018-03-07T07:52:19.474Z,40.50
2018-03-07T07:53:19.451Z,41.00
2018-03-07T07:54:19.412Z,41.90
2018-03-07T07:55:19.392Z,39.10
2018-03-07T07:56:19.350Z,40.50
2018-03-07T07:57:19.307Z,39.80
2018-03-07T07:58:19.276Z,40.70
2018-03-07T07:59:19.306Z,39.30
2018-03-07T08:00:19.229Z,38.80
2018-03-07T08:01:19.213Z,40.40
2018-03-07T08:02:19.151Z,39.70
2018-03-07T08:03:19.200Z,39.20
2018-03-07T08:04:19.131Z,41.70
2018-03-07T08:05:19.099Z,39.50
2018-03-07T08:06:19.069Z,39.80
2018-03-07T08:07:19.014Z,41.30
2018-03-07T08:08:18.960Z,42.00
2018-03-07T08:09:18.953Z,44.60
2018-03-07T08:10:18.908Z,43.50
2018-03-07T08:11:18.900Z,44.70
2018-03-07T08:12:18.860Z,44.80
2018-03-07T08:13:18.817Z,46.50
2018-03-07T08:14:18.783Z,46.50
2018-03-07T08:15:18.749Z,46.40
2018-03-07T08:16:18.744Z,44.30
2018-03-07T08:17:18.721Z,47.50
2018-03-07T08:18:18.706Z,46.10
2018-03-07T08:19:18.625Z,45.40
2018-03-07T08:20:18.603Z,49.00
2018-03-07T08:21:18.597Z,48.00
2018-03-07T08:22:18.562Z,48.40
2018-03-07T08:23:18.529Z,48.90
2018-03-07T08:24:18.493Z,48.90
2018-03-07T08:25:18.458Z,49.50
2018-03-07T08:26:18.413Z,50.40
2018-03-07T08:27:18.387Z,50.50
2018-03-07T08:28:18.353Z,50.10
2018-03-07T08:29:18.341Z,52.50
2018-03-07T08:30:18.307Z,49.40
2018-03-07T08:31:18.285Z,51.00
2018-03-07T08:32:18.236Z,49.70
2018-03-07T08:33:18.211Z,50.80
2018-03-07T08:34:18.192Z,51.50
2018-03-07T08:35:18.147Z,51.90
2018-03-07T08:36:18.094Z,51.50
2018-03-07T08:37:18.063Z,50.80
2018-03-07T08:38:18.064Z,47.00
2018-03-07T08:39:18.016Z,46.50
2018-03-07T08:40:17.983Z,47.60
2018-03-07T08:41:17.966Z,46.20
2018-03-07T08:42:17.897Z,48.30
2018-03-07T08:43:17.878Z,48.80
2018-03-07T08:44:17.830Z,46.50
2018-03-07T08:45:17.828Z,48.70
2018-03-07T08:46:17.781Z,48.80
2018-03-07T08:47:17.776Z,46.60
2018-03-07T08:48:17.755Z,50.10
2018-03-07T08:49:17.715Z,48.10
2018-03-07T08:50:17.689Z,45.50
2018-03-07T08:51:17.631Z,47.10
2018-03-07T08:52:17.622Z,45.20
2018-03-07T08:53:17.572Z,47.30
2018-03-07T08:54:17.539Z,48.50
2018-03-07T08:55:17.506Z,48.00
2018-03-07T08:56:17.453Z,49.50
2018-03-07T08:57:17.473Z,49.70
2018-03-07T08:58:17.437Z,51.00
2018-03-07T08:59:17.388Z,49.10
2018-03-07T09:00:17.346Z,48.80
2018-03-07T09:01:17.317Z,49.70
2018-03-07T09:02:17.303Z,44.70
2018-03-07T09:03:17.263Z,47.10
2018-03-07T09:04:17.241Z,45.40
2018-03-07T09:05:17.189Z,44.80
2018-03-07T09:06:17.172Z,43.90
2018-03-07T09:07:17.159Z,44.20
2018-03-07T09:08:17.099Z,43.70
2018-03-07T09:09:17.053Z,44.40
2018-03-07T09:10:17.107Z,40.90
2018-03-07T09:11:17.027Z,40.40
2018-03-07T09:12:16.957Z,40.70
2018-03-07T09:13:16.958Z,41.90
2018-03-07T09:14:16.905Z,40.40
2018-03-07T09:15:16.875Z,37.60
2018-03-07T09:16:16.837Z,38.60
2018-03-07T09:17:16.803Z,36.30
2018-03-07T09:18:16.806Z,37.90
2018-03-07T09:19:16.742Z,36.30
2018-03-07T09:20:16.720Z,35.40
2018-03-07T09:21:16.706Z,36.10
2018-03-07T09:22:16.648Z,33.40
2018-03-07T09:23:16.617Z,33.80
2018-03-07T09:24:16.611Z,32.40
2018-03-07T09:25:16.588Z,32.00
2018-03-07T09:26:16.530Z,31.80
2018-03-07T09:27:16.510Z,30.50
2018-03-07T09:28:16.459Z,28.30
2018-03-07T09:29:16.428Z,28.00
2018-03-07T09:30:16.394Z,27.40
2018-03-07T09:31:16.364Z,27.50
2018-03-07T09:32:16.336Z,26.30
2018-03-07T09:33:16.321Z,24.20
2018-03-07T09:34:16.276Z,23.90
2018-03-07T09:35:16.235Z,23.90
2018-03-07T09:36:16.211Z,22.70
2018-03-07T09:37:16.181Z,22.50
2018-03-07T09:38:16.143Z,21.30
2018-03-07T09:39:16.103Z,23.60
2018-03-07T09:40:16.066Z,20.50
2018-03-07T09:41:16.053Z,20.00
2018-03-07T09:42:16.023Z,19.90
2018-03-07T09:43:15.975Z,20.10
2018-03-07T09:44:15.963Z,19.50
2018-03-07T09:45:15.929Z,19.00
2018-03-07T09:46:15.922Z,19.90
2018-03-07T09:47:15.886Z,18.80
2018-03-07T09:48:15.837Z,16.30
2018-03-07T09:49:15.821Z,16.60
2018-03-07T09:50:15.798Z,15.80
2018-03-07T09:51:16.333Z,16.30
2018-03-07T09:52:15.726Z,14.80
2018-03-07T09:53:15.702Z,16.50
2018-03-07T09:54:15.644Z,15.60
2018-03-07T09:55:15.633Z,15.60
2018-03-07T09:56:15.690Z,14.60
2018-03-07T09:57:15.573Z,15.20
2018-03-07T09:58:15.543Z,15.50
2018-03-07T09:59:15.511Z,14.30
2018-03-07T10:00:15.443Z,15.10
2018-03-07T10:01:15.453Z,14.90
2018-03-07T10:02:15.392Z,13.90
2018-03-07T10:03:15.385Z,13.50
2018-03-07T10:04:15.320Z,13.00
2018-03-07T10:05:15.315Z,13.00
2018-03-07T10:06:15.256Z,12.80
2018-03-07T10:07:15.233Z,12.70
2018-03-07T10:08:15.245Z,13.40
2018-03-07T10:09:15.159Z,12.70
2018-03-07T10:10:15.162Z,12.30
2018-03-07T10:11:15.098Z,12.20
2018-03-07T10:12:15.077Z,12.30
2018-03-07T10:13:15.036Z,10.80
2018-03-07T10:14:15.017Z,11.10
2018-03-07T10:15:14.964Z,11.40
2018-03-07T10:16:14.948Z,11.10
2018-03-07T10:17:14.918Z,10.50
2018-03-07T10:18:14.910Z,10.80
2018-03-07T10:19:14.871Z,10.40
2018-03-07T10:20:14.816Z,10.40
2018-03-07T10:21:14.780Z,10.40
2018-03-07T10:22:14.786Z,9.50
2018-03-07T10:23:14.753Z,9.90
2018-03-07T10:24:14.720Z,10.20
2018-03-07T10:25:14.674Z,10.20
2018-03-07T10:26:14.646Z,9.10
2018-03-07T10:27:14.624Z,9.00
2018-03-07T10:28:14.595Z,8.90
2018-03-07T10:29:14.559Z,9.20
2018-03-07T10:30:14.529Z,8.80
2018-03-07T10:31:14.463Z,9.60
2018-03-07T10:32:14.432Z,9.80
2018-03-07T10:33:14.406Z,9.50
2018-03-07T10:34:14.381Z,9.30
2018-03-07T10:35:14.339Z,9.10
2018-03-07T10:36:14.314Z,10.00
2018-03-07T10:37:14.287Z,10.10
2018-03-07T10:38:14.253Z,9.60
2018-03-07T10:39:14.250Z,10.30
2018-03-07T10:40:14.181Z,9.70
2018-03-07T10:41:14.160Z,9.30
2018-03-07T10:42:14.142Z,9.20
2018-03-07T10:43:14.125Z,9.50
2018-03-07T10:44:14.064Z,9.60
2018-03-07T10:45:14.047Z,9.40
2018-03-07T10:46:14.010Z,10.50
2018-03-07T10:47:13.976Z,10.10
2018-03-07T10:48:13.954Z,9.30
2018-03-07T10:49:13.930Z,9.10
2018-03-07T10:50:13.887Z,8.90
2018-03-07T10:51:13.839Z,10.00
2018-03-07T10:52:13.804Z,8.80
2018-03-07T10:53:13.776Z,9.20
2018-03-07T10:54:13.739Z,9.50
2018-03-07T10:55:13.717Z,9.60
2018-03-07T10:56:13.680Z,9.00
2018-03-07T10:57:13.669Z,8.20
2018-03-07T10:58:13.633Z,9.00
2018-03-07T10:59:13.586Z,8.40
2018-03-07T11:00:13.587Z,8.90
2018-03-07T11:01:13.523Z,9.60
2018-03-07T11:02:13.506Z,9.90
2018-03-07T11:03:13.468Z,8.90
2018-03-07T11:04:13.416Z,9.10
2018-03-07T11:05:13.405Z,8.70
2018-03-07T11:06:13.398Z,9.20
2018-03-07T11:07:13.355Z,8.80
2018-03-07T11:08:13.330Z,10.00
2018-03-07T11:09:13.297Z,9.90
2018-03-07T11:10:13.284Z,9.70
2018-03-07T11:11:13.242Z,9.90
2018-03-07T11:12:13.201Z,11.10
2018-03-07T11:13:13.146Z,11.10
2018-03-07T11:14:13.131Z,10.30
2018-03-07T11:15:13.088Z,10.00
2018-03-07T11:16:13.047Z,11.40
2018-03-07T11:17:13.057Z,9.90
2018-03-07T11:18:12.986Z,10.30
2018-03-07T11:19:12.985Z,11.10
2018-03-07T11:20:12.941Z,11.50
2018-03-07T11:21:12.910Z,12.00
2018-03-07T11:22:12.852Z,12.10
2018-03-07T11:23:12.826Z,10.90
2018-03-07T11:24:12.802Z,11.40
2018-03-07T11:25:12.805Z,11.50
2018-03-07T11:26:12.747Z,11.40
2018-03-07T11:27:12.742Z,11.20
2018-03-07T11:28:12.710Z,11.90
2018-03-07T11:29:12.655Z,11.00
2018-03-07T11:30:12.620Z,11.70
2018-03-07T11:31:12.614Z,10.80
2018-03-07T11:32:12.573Z,11.00
2018-03-07T11:33:12.521Z,11.30
2018-03-07T11:34:12.524Z,11.00
2018-03-07T11:35:12.469Z,11.50
2018-03-07T11:36:12.450Z,11.20
2018-03-07T11:37:12.398Z,12.10
2018-03-07T11:38:12.374Z,11.80
2018-03-07T11:39:12.359Z,12.00
2018-03-07T11:40:12.310Z,11.40
2018-03-07T11:41:12.272Z,12.50
2018-03-07T11:42:12.243Z,11.90
2018-03-07T11:43:12.235Z,12.10
2018-03-07T11:44:12.189Z,11.30
2018-03-07T11:45:12.135Z,12.30
2018-03-07T11:46:12.126Z,11.70
2018-03-07T11:47:12.093Z,11.20
2018-03-07T11:48:12.060Z,11.40
2018-03-07T11:49:12.061Z,11.30
2018-03-07T11:50:12.015Z,11.70
2018-03-07T11:51:11.959Z,11.90
2018-03-07T11:52:11.934Z,10.90
2018-03-07T11:53:11.908Z,11.10
2018-03-07T11:54:11.863Z,10.10
2018-03-07T11:55:11.852Z,10.60
2018-03-07T11:56:11.811Z,9.70
2018-03-07T11:57:11.809Z,9.00
2018-03-07T11:58:11.737Z,8.40
2018-03-07T11:59:11.737Z,8.30
2018-03-07T12:00:11.712Z,8.00
2018-03-07T12:01:11.661Z,7.70
2018-03-07T12:02:11.636Z,7.30
2018-03-07T12:03:11.605Z,7.40
2018-03-07T12:04:11.576Z,7.90
2018-03-07T12:05:11.541Z,7.20
2018-03-07T12:06:11.506Z,7.40
2018-03-07T12:07:11.514Z,7.80
2018-03-07T12:08:11.437Z,8.00
2018-03-07T12:09:11.442Z,6.70
2018-03-07T12:10:11.415Z,5.80
2018-03-07T12:11:11.380Z,5.10
2018-03-07T12:12:11.330Z,4.80
2018-03-07T12:13:11.280Z,3.90
2018-03-07T12:14:11.266Z,4.00
2018-03-07T12:15:11.244Z,3.60
2018-03-07T12:16:11.193Z,3.80
2018-03-07T12:17:11.180Z,3.30
2018-03-07T12:18:11.147Z,4.00
2018-03-07T12:19:11.136Z,3.70
2018-03-07T12:20:11.069Z,4.00
2018-03-07T12:21:11.044Z,3.50
2018-03-07T12:22:11.037Z,3.80
2018-03-07T12:23:10.980Z,4.90
2018-03-07T12:24:10.952Z,3.60
2018-03-07T12:25:10.943Z,4.20
2018-03-07T12:26:10.919Z,3.70
2018-03-07T12:27:10.859Z,4.40
2018-03-07T12:28:10.839Z,4.40
2018-03-07T12:29:10.805Z,4.20
2018-03-07T12:30:10.764Z,4.20
2018-03-07T12:31:10.765Z,3.70
2018-03-07T12:32:10.733Z,3.60
2018-03-07T12:33:10.688Z,3.60
2018-03-07T12:34:10.672Z,3.90
2018-03-07T12:35:10.615Z,3.70
2018-03-07T12:36:10.586Z,3.80
2018-03-07T12:37:10.556Z,4.00
2018-03-07T12:38:10.516Z,3.60
2018-03-07T12:39:10.511Z,3.20
2018-03-07T12:40:10.455Z,3.80
2018-03-07T12:41:10.429Z,3.80
2018-03-07T12:42:10.416Z,3.00
2018-03-07T12:43:10.400Z,3.30
2018-03-07T12:44:10.367Z,3.80
2018-03-07T12:45:10.329Z,3.40
2018-03-07T12:46:10.266Z,3.80
2018-03-07T12:47:10.265Z,3.70
2018-03-07T12:48:10.231Z,3.20
2018-03-07T12:49:10.196Z,3.30
2018-03-07T12:50:10.177Z,3.10
2018-03-07T12:51:10.124Z,3.50
2018-03-07T12:52:10.097Z,2.90
2018-03-07T12:53:10.064Z,3.60
2018-03-07T12:54:10.045Z,3.30
2018-03-07T12:55:10.023Z,3.10
2018-03-07T12:56:09.994Z,3.10
2018-03-07T12:57:09.937Z,3.00
2018-03-07T12:58:09.916Z,3.00
2018-03-07T12:59:09.886Z,3.00
2018-03-07T13:00:09.837Z,3.00
2018-03-07T13:01:09.838Z,3.60
2018-03-07T13:02:09.783Z,2.90
2018-03-07T13:03:09.755Z,2.80
2018-03-07T13:04:09.729Z,3.20
2018-03-07T13:05:09.688Z,3.30
2018-03-07T13:06:09.658Z,3.00
2018-03-07T13:07:09.635Z,3.60
2018-03-07T13:08:09.598Z,3.50